sensor_id;sensor_type;location;lat;lon;timestamp;temperature;humidity
9941;DHT22;5009;50.656;7.188;2023-07-31T04:01:58;19.00;99.90
9941;DHT22;5009;50.656;7.188;2023-07-31T04:04:24;19.00;99.90
9941;DHT22;5009;50.656;7.188;2023-07-31T04:06:50;19.00;99.90
9941;DHT22;5009;50.656;7.188;2023-07-31T04:09:15;19.00;99.90
9941;DHT22;5009;50.656;7.188;2023-07-31T04:11:41;19.00;99.90
9941;DHT22;5009;50.656;7.188;2023-07-31T04:14:06;19.00;99.90
9941;DHT22;5009;50.656;7.188;2023-07-31T04:16:32;19.00;99.90
9941;DHT22;5009;50.656;7.188;2023-07-31T04:18:57;19.00;99.90
9941;DHT22;5009;50.656;7.188;2023-07-31T04:21:23;19.00;99.90
9941;DHT22;5009;50.656;7.188;2023-07-31T04:23:48;19.00;99.90
9941;DHT22;5009;50.656;7.188;2023-07-31T04:26:14;19.00;99.90
9941;DHT22;5009;50.656;7.188;2023-07-31T04:28:40;19.10;99.90
9941;DHT22;5009;50.656;7.188;2023-07-31T04:31:05;19.10;99.90
9941;DHT22;5009;50.656;7.188;2023-07-31T04:33:31;19.00;99.90
9941;DHT22;5009;50.656;7.188;2023-07-31T04:35:57;19.00;99.90
9941;DHT22;5009;50.656;7.188;2023-07-31T04:38:23;19.00;99.90
9941;DHT22;5009;50.656;7.188;2023-07-31T04:40:48;19.00;99.90
9941;DHT22;5009;50.656;7.188;2023-07-31T04:43:14;19.10;99.90
9941;DHT22;5009;50.656;7.188;2023-07-31T04:45:41;19.10;99.90
9941;DHT22;5009;50.656;7.188;2023-07-31T04:48:07;19.10;99.90
9941;DHT22;5009;50.656;7.188;2023-07-31T04:50:33;19.00;99.90
9941;DHT22;5009;50.656;7.188;2023-07-31T04:52:58;19.10;99.90
9941;DHT22;5009;50.656;7.188;2023-07-31T04:55:24;19.00;99.90
9941;DHT22;5009;50.656;7.188;2023-07-31T04:57:49;19.00;99.90
9941;DHT22;5009;50.656;7.188;2023-07-31T05:00:15;19.10;99.90
9941;DHT22;5009;50.656;7.188;2023-07-31T05:02:41;19.10;99.90
9941;DHT22;5009;50.656;7.188;2023-07-31T05:05:06;19.10;99.90
9941;DHT22;5009;50.656;7.188;2023-07-31T05:07:32;19.20;99.90
9941;DHT22;5009;50.656;7.188;2023-07-31T05:09:57;19.20;99.90
9941;DHT22;5009;50.656;7.188;2023-07-31T05:12:23;19.20;99.90
9941;DHT22;5009;50.656;7.188;2023-07-31T05:14:49;19.20;99.90
9941;DHT22;5009;50.656;7.188;2023-07-31T05:17:14;19.20;99.90
9941;DHT22;5009;50.656;7.188;2023-07-31T05:19:40;19.20;99.90
9941;DHT22;5009;50.656;7.188;2023-07-31T05:22:05;19.30;99.90
9941;DHT22;5009;50.656;7.188;2023-07-31T05:24:31;19.30;99.90
9941;DHT22;5009;50.656;7.188;2023-07-31T05:26:57;19.30;99.90
9941;DHT22;5009;50.656;7.188;2023-07-31T05:29:22;19.30;99.90
9941;DHT22;5009;50.656;7.188;2023-07-31T05:31:48;19.30;99.90
9941;DHT22;5009;50.656;7.188;2023-07-31T05:34:13;19.40;99.90
9941;DHT22;5009;50.656;7.188;2023-07-31T05:36:39;19.40;99.90
9941;DHT22;5009;50.656;7.188;2023-07-31T05:39:04;19.40;99.90
9941;DHT22;5009;50.656;7.188;2023-07-31T05:41:33;19.40;99.90
9941;DHT22;5009;50.656;7.188;2023-07-31T05:44:00;19.40;99.90
9941;DHT22;5009;50.656;7.188;2023-07-31T05:46:25;19.40;99.90
9941;DHT22;5009;50.656;7.188;2023-07-31T05:48:51;19.50;99.90
9941;DHT22;5009;50.656;7.188;2023-07-31T05:51:16;19.40;99.90
9941;DHT22;5009;50.656;7.188;2023-07-31T05:53:42;19.50;99.90
9941;DHT22;5009;50.656;7.188;2023-07-31T05:56:07;19.50;99.90
9941;DHT22;5009;50.656;7.188;2023-07-31T05:58:33;19.60;99.90
9941;DHT22;5009;50.656;7.188;2023-07-31T06:00:58;19.50;99.90
9941;DHT22;5009;50.656;7.188;2023-07-31T06:03:24;19.60;99.90
9941;DHT22;5009;50.656;7.188;2023-07-31T06:05:49;19.60;99.90
9941;DHT22;5009;50.656;7.188;2023-07-31T06:08:15;19.60;99.90
9941;DHT22;5009;50.656;7.188;2023-07-31T06:10:41;19.70;99.90
9941;DHT22;5009;50.656;7.188;2023-07-31T06:13:06;19.70;99.90
9941;DHT22;5009;50.656;7.188;2023-07-31T06:15:32;19.60;99.90
9941;DHT22;5009;50.656;7.188;2023-07-31T06:17:57;19.60;99.90
9941;DHT22;5009;50.656;7.188;2023-07-31T06:20:23;19.60;99.90
9941;DHT22;5009;50.656;7.188;2023-07-31T06:22:48;19.60;99.90
9941;DHT22;5009;50.656;7.188;2023-07-31T06:25:14;19.60;99.90
9941;DHT22;5009;50.656;7.188;2023-07-31T06:27:39;19.50;99.90
9941;DHT22;5009;50.656;7.188;2023-07-31T06:30:06;19.50;99.90
9941;DHT22;5009;50.656;7.188;2023-07-31T06:32:32;19.40;99.90
9941;DHT22;5009;50.656;7.188;2023-07-31T06:34:57;19.40;99.90
9941;DHT22;5009;50.656;7.188;2023-07-31T06:37:23;19.40;99.90
9941;DHT22;5009;50.656;7.188;2023-07-31T06:39:48;19.40;99.90
9941;DHT22;5009;50.656;7.188;2023-07-31T06:42:14;19.30;99.90
9941;DHT22;5009;50.656;7.188;2023-07-31T06:44:39;19.30;99.90
9941;DHT22;5009;50.656;7.188;2023-07-31T06:47:05;19.20;99.90
9941;DHT22;5009;50.656;7.188;2023-07-31T06:49:31;19.20;99.90
9941;DHT22;5009;50.656;7.188;2023-07-31T06:51:56;19.20;99.90
9941;DHT22;5009;50.656;7.188;2023-07-31T06:54:22;19.20;99.90
9941;DHT22;5009;50.656;7.188;2023-07-31T06:56:47;19.20;99.90
9941;DHT22;5009;50.656;7.188;2023-07-31T06:59:13;19.20;99.90
9941;DHT22;5009;50.656;7.188;2023-07-31T07:01:38;19.20;99.90
9941;DHT22;5009;50.656;7.188;2023-07-31T07:04:04;19.20;99.90
9941;DHT22;5009;50.656;7.188;2023-07-31T07:06:29;19.20;99.90
9941;DHT22;5009;50.656;7.188;2023-07-31T07:08:55;19.20;99.90
9941;DHT22;5009;50.656;7.188;2023-07-31T07:11:21;19.30;99.90
9941;DHT22;5009;50.656;7.188;2023-07-31T07:13:46;19.40;99.90
9941;DHT22;5009;50.656;7.188;2023-07-31T07:16:12;19.50;99.90
9941;DHT22;5009;50.656;7.188;2023-07-31T07:18:37;19.40;99.90
9941;DHT22;5009;50.656;7.188;2023-07-31T07:21:03;19.50;99.90
9941;DHT22;5009;50.656;7.188;2023-07-31T07:23:29;19.50;99.90
9941;DHT22;5009;50.656;7.188;2023-07-31T07:25:54;19.70;99.90
9941;DHT22;5009;50.656;7.188;2023-07-31T07:28:20;19.80;99.90
9941;DHT22;5009;50.656;7.188;2023-07-31T07:30:51;19.90;99.90
9941;DHT22;5009;50.656;7.188;2023-07-31T07:33:17;19.90;99.90
9941;DHT22;5009;50.656;7.188;2023-07-31T07:35:43;20.00;99.90
9941;DHT22;5009;50.656;7.188;2023-07-31T07:38:08;20.00;99.90
9941;DHT22;5009;50.656;7.188;2023-07-31T07:40:41;20.20;99.90
9941;DHT22;5009;50.656;7.188;2023-07-31T07:43:07;20.30;99.90
9941;DHT22;5009;50.656;7.188;2023-07-31T07:45:32;20.30;99.90
9941;DHT22;5009;50.656;7.188;2023-07-31T07:47:58;20.30;99.90
9941;DHT22;5009;50.656;7.188;2023-07-31T07:50:24;20.30;99.90
9941;DHT22;5009;50.656;7.188;2023-07-31T07:52:50;20.30;99.90
9941;DHT22;5009;50.656;7.188;2023-07-31T07:55:15;20.30;99.90
9941;DHT22;5009;50.656;7.188;2023-07-31T07:57:41;20.30;99.90
9941;DHT22;5009;50.656;7.188;2023-07-31T08:00:07;20.30;99.90
9941;DHT22;5009;50.656;7.188;2023-07-31T08:02:33;20.20;99.90
9941;DHT22;5009;50.656;7.188;2023-07-31T08:04:58;20.20;99.90
9941;DHT22;5009;50.656;7.188;2023-07-31T08:07:24;20.00;99.90
9941;DHT22;5009;50.656;7.188;2023-07-31T08:09:49;20.10;99.90
9941;DHT22;5009;50.656;7.188;2023-07-31T08:12:15;20.10;99.90
9941;DHT22;5009;50.656;7.188;2023-07-31T08:14:41;20.10;99.90
9941;DHT22;5009;50.656;7.188;2023-07-31T08:17:06;20.10;99.90
9941;DHT22;5009;50.656;7.188;2023-07-31T08:19:32;19.80;99.90
9941;DHT22;5009;50.656;7.188;2023-07-31T08:21:57;19.90;99.90
9941;DHT22;5009;50.656;7.188;2023-07-31T08:24:23;19.90;99.90
9941;DHT22;5009;50.656;7.188;2023-07-31T08:26:48;19.80;99.90
9941;DHT22;5009;50.656;7.188;2023-07-31T08:29:14;19.80;99.90
9941;DHT22;5009;50.656;7.188;2023-07-31T08:31:39;19.80;99.90
9941;DHT22;5009;50.656;7.188;2023-07-31T08:34:05;19.80;99.90
9941;DHT22;5009;50.656;7.188;2023-07-31T08:36:31;19.80;99.90
9941;DHT22;5009;50.656;7.188;2023-07-31T08:38:56;19.80;99.90
9941;DHT22;5009;50.656;7.188;2023-07-31T08:41:22;19.60;99.90
9941;DHT22;5009;50.656;7.188;2023-07-31T08:43:49;19.70;99.90
9941;DHT22;5009;50.656;7.188;2023-07-31T08:46:15;19.60;99.90
9941;DHT22;5009;50.656;7.188;2023-07-31T08:48:44;19.40;99.90
9941;DHT22;5009;50.656;7.188;2023-07-31T08:51:10;19.40;99.90
9941;DHT22;5009;50.656;7.188;2023-07-31T08:53:36;19.40;99.90
9941;DHT22;5009;50.656;7.188;2023-07-31T08:56:02;19.30;99.90
9941;DHT22;5009;50.656;7.188;2023-07-31T08:58:31;19.30;99.90
9941;DHT22;5009;50.656;7.188;2023-07-31T09:00:59;19.30;99.90
9941;DHT22;5009;50.656;7.188;2023-07-31T09:03:26;19.30;99.90
9941;DHT22;5009;50.656;7.188;2023-07-31T09:05:51;19.20;99.90
9941;DHT22;5009;50.656;7.188;2023-07-31T09:08:20;19.20;99.90
9941;DHT22;5009;50.656;7.188;2023-07-31T09:10:46;19.30;99.90
9941;DHT22;5009;50.656;7.188;2023-07-31T09:13:15;19.20;99.90
9941;DHT22;5009;50.656;7.188;2023-07-31T09:15:43;19.20;99.90
9941;DHT22;5009;50.656;7.188;2023-07-31T09:18:10;19.30;99.90
9941;DHT22;5009;50.656;7.188;2023-07-31T09:20:36;19.20;99.90
9941;DHT22;5009;50.656;7.188;2023-07-31T09:23:13;19.20;99.90
9941;DHT22;5009;50.656;7.188;2023-07-31T09:25:43;19.30;99.90
9941;DHT22;5009;50.656;7.188;2023-07-31T09:28:10;19.20;99.90
9941;DHT22;5009;50.656;7.188;2023-07-31T09:30:50;19.20;99.90
9941;DHT22;5009;50.656;7.188;2023-07-31T09:33:17;19.20;99.90
9941;DHT22;5009;50.656;7.188;2023-07-31T09:35:43;19.30;99.90
9941;DHT22;5009;50.656;7.188;2023-07-31T09:38:13;19.30;99.90
9941;DHT22;5009;50.656;7.188;2023-07-31T09:40:44;19.40;99.90
9941;DHT22;5009;50.656;7.188;2023-07-31T09:43:12;19.50;99.90
9941;DHT22;5009;50.656;7.188;2023-07-31T09:45:39;19.50;99.90
9941;DHT22;5009;50.656;7.188;2023-07-31T09:48:16;19.50;99.90
9941;DHT22;5009;50.656;7.188;2023-07-31T09:50:45;19.50;99.90
9941;DHT22;5009;50.656;7.188;2023-07-31T09:53:11;19.60;99.90
9941;DHT22;5009;50.656;7.188;2023-07-31T09:55:38;19.50;99.90
9941;DHT22;5009;50.656;7.188;2023-07-31T09:58:05;19.60;99.90
9941;DHT22;5009;50.656;7.188;2023-07-31T10:00:32;19.70;99.90
9941;DHT22;5009;50.656;7.188;2023-07-31T10:03:04;19.70;99.90
9941;DHT22;5009;50.656;7.188;2023-07-31T10:05:35;19.70;99.90
9941;DHT22;5009;50.656;7.188;2023-07-31T10:08:01;19.80;99.90
9941;DHT22;5009;50.656;7.188;2023-07-31T10:10:27;20.00;99.90
9941;DHT22;5009;50.656;7.188;2023-07-31T10:12:53;20.00;99.90
9941;DHT22;5009;50.656;7.188;2023-07-31T10:15:20;20.00;99.90
9941;DHT22;5009;50.656;7.188;2023-07-31T10:17:49;20.10;99.90
9941;DHT22;5009;50.656;7.188;2023-07-31T10:20:16;20.20;99.90
9941;DHT22;5009;50.656;7.188;2023-07-31T10:22:42;20.20;99.90
9941;DHT22;5009;50.656;7.188;2023-07-31T10:25:09;20.30;99.90
9941;DHT22;5009;50.656;7.188;2023-07-31T10:27:45;20.40;99.90
9941;DHT22;5009;50.656;7.188;2023-07-31T10:30:15;20.50;99.90
9941;DHT22;5009;50.656;7.188;2023-07-31T10:32:41;20.50;99.90
9941;DHT22;5009;50.656;7.188;2023-07-31T10:35:09;20.60;99.90
9941;DHT22;5009;50.656;7.188;2023-07-31T10:37:39;20.60;99.90
9941;DHT22;5009;50.656;7.188;2023-07-31T10:42:36;20.80;99.90
9941;DHT22;5009;50.656;7.188;2023-07-31T10:45:08;21.00;99.90
9941;DHT22;5009;50.656;7.188;2023-07-31T10:47:46;21.10;99.90
9941;DHT22;5009;50.656;7.188;2023-07-31T10:50:22;21.30;99.90
9941;DHT22;5009;50.656;7.188;2023-07-31T10:52:56;21.60;99.90
9941;DHT22;5009;50.656;7.188;2023-07-31T10:57:54;21.90;99.90
9941;DHT22;5009;50.656;7.188;2023-07-31T11:00:28;22.00;99.90
9941;DHT22;5009;50.656;7.188;2023-07-31T11:03:00;22.00;99.90
9941;DHT22;5009;50.656;7.188;2023-07-31T11:05:53;22.00;99.90
9941;DHT22;5009;50.656;7.188;2023-07-31T11:08:27;21.80;99.90
9941;DHT22;5009;50.656;7.188;2023-07-31T11:13:32;21.70;99.90
9941;DHT22;5009;50.656;7.188;2023-07-31T11:15:58;21.70;99.90
9941;DHT22;5009;50.656;7.188;2023-07-31T11:18:24;21.90;99.90
9941;DHT22;5009;50.656;7.188;2023-07-31T11:20:51;22.20;99.90
9941;DHT22;5009;50.656;7.188;2023-07-31T11:23:17;22.30;99.90
9941;DHT22;5009;50.656;7.188;2023-07-31T11:25:43;22.40;99.90
9941;DHT22;5009;50.656;7.188;2023-07-31T11:28:09;22.50;99.90
9941;DHT22;5009;50.656;7.188;2023-07-31T11:30:36;22.60;99.90
9941;DHT22;5009;50.656;7.188;2023-07-31T11:33:03;22.70;99.90
9941;DHT22;5009;50.656;7.188;2023-07-31T11:35:32;22.80;99.90
9941;DHT22;5009;50.656;7.188;2023-07-31T11:37:58;22.80;99.90
9941;DHT22;5009;50.656;7.188;2023-07-31T11:40:24;23.00;99.90
9941;DHT22;5009;50.656;7.188;2023-07-31T11:42:58;23.00;99.90
9941;DHT22;5009;50.656;7.188;2023-07-31T11:45:27;22.90;99.90
9941;DHT22;5009;50.656;7.188;2023-07-31T11:47:56;22.90;99.90
9941;DHT22;5009;50.656;7.188;2023-07-31T11:50:23;22.90;99.90
9941;DHT22;5009;50.656;7.188;2023-07-31T11:53:07;22.90;99.90
9941;DHT22;5009;50.656;7.188;2023-07-31T11:55:34;22.80;99.90
9941;DHT22;5009;50.656;7.188;2023-07-31T11:58:00;22.90;99.90
9941;DHT22;5009;50.656;7.188;2023-07-31T12:00:27;23.10;99.90
9941;DHT22;5009;50.656;7.188;2023-07-31T12:02:53;23.40;99.90
9941;DHT22;5009;50.656;7.188;2023-07-31T12:05:19;23.60;99.90
9941;DHT22;5009;50.656;7.188;2023-07-31T12:07:47;23.50;99.90
9941;DHT22;5009;50.656;7.188;2023-07-31T12:10:27;23.60;99.90
9941;DHT22;5009;50.656;7.188;2023-07-31T12:13:16;23.60;99.90
9941;DHT22;5009;50.656;7.188;2023-07-31T12:15:46;23.60;99.90
9941;DHT22;5009;50.656;7.188;2023-07-31T12:18:19;23.70;99.90
9941;DHT22;5009;50.656;7.188;2023-07-31T12:20:47;23.70;99.90
9941;DHT22;5009;50.656;7.188;2023-07-31T12:23:20;23.80;99.90
9941;DHT22;5009;50.656;7.188;2023-07-31T12:26:12;23.90;99.90
9941;DHT22;5009;50.656;7.188;2023-07-31T12:28:42;24.00;99.00
9941;DHT22;5009;50.656;7.188;2023-07-31T12:31:19;24.00;99.00
9941;DHT22;5009;50.656;7.188;2023-07-31T12:33:47;24.20;99.30
9941;DHT22;5009;50.656;7.188;2023-07-31T12:36:22;24.20;98.00
9941;DHT22;5009;50.656;7.188;2023-07-31T12:38:49;24.20;97.60
9941;DHT22;5009;50.656;7.188;2023-07-31T12:41:15;24.30;97.90
9941;DHT22;5009;50.656;7.188;2023-07-31T12:43:43;24.30;97.90
9941;DHT22;5009;50.656;7.188;2023-07-31T12:46:08;24.40;97.70
9941;DHT22;5009;50.656;7.188;2023-07-31T12:48:35;24.30;97.70
9941;DHT22;5009;50.656;7.188;2023-07-31T12:51:01;24.40;97.30
9941;DHT22;5009;50.656;7.188;2023-07-31T12:53:28;24.40;97.50
9941;DHT22;5009;50.656;7.188;2023-07-31T12:55:53;24.30;96.60
9941;DHT22;5009;50.656;7.188;2023-07-31T12:58:19;24.30;96.70
9941;DHT22;5009;50.656;7.188;2023-07-31T13:00:45;24.30;96.90
9941;DHT22;5009;50.656;7.188;2023-07-31T13:03:10;24.10;96.80
9941;DHT22;5009;50.656;7.188;2023-07-31T13:05:36;24.00;97.20
9941;DHT22;5009;50.656;7.188;2023-07-31T13:08:01;23.90;97.30
9941;DHT22;5009;50.656;7.188;2023-07-31T13:10:27;23.90;97.40
9941;DHT22;5009;50.656;7.188;2023-07-31T13:12:54;23.80;97.20
9941;DHT22;5009;50.656;7.188;2023-07-31T13:15:19;23.70;97.30
9941;DHT22;5009;50.656;7.188;2023-07-31T13:17:46;23.70;97.60
9941;DHT22;5009;50.656;7.188;2023-07-31T13:20:11;23.60;97.60
9941;DHT22;5009;50.656;7.188;2023-07-31T13:22:37;23.50;97.50
9941;DHT22;5009;50.656;7.188;2023-07-31T13:25:02;23.30;96.90
9941;DHT22;5009;50.656;7.188;2023-07-31T13:27:28;23.30;97.30
9941;DHT22;5009;50.656;7.188;2023-07-31T13:29:54;23.30;97.50
9941;DHT22;5009;50.656;7.188;2023-07-31T13:32:20;23.20;96.90
9941;DHT22;5009;50.656;7.188;2023-07-31T13:34:47;23.30;97.60
9941;DHT22;5009;50.656;7.188;2023-07-31T13:37:13;23.30;97.70
9941;DHT22;5009;50.656;7.188;2023-07-31T13:39:39;23.40;97.60
9941;DHT22;5009;50.656;7.188;2023-07-31T13:42:06;23.50;97.40
9941;DHT22;5009;50.656;7.188;2023-07-31T13:44:38;23.50;96.90
9941;DHT22;5009;50.656;7.188;2023-07-31T13:47:03;23.70;97.00
9941;DHT22;5009;50.656;7.188;2023-07-31T13:49:29;23.70;96.60
9941;DHT22;5009;50.656;7.188;2023-07-31T13:51:55;23.90;96.50
9941;DHT22;5009;50.656;7.188;2023-07-31T13:54:22;23.70;96.00
9941;DHT22;5009;50.656;7.188;2023-07-31T13:56:48;23.70;96.00
9941;DHT22;5009;50.656;7.188;2023-07-31T13:59:13;23.80;96.00
9941;DHT22;5009;50.656;7.188;2023-07-31T14:01:41;23.90;96.00
9941;DHT22;5009;50.656;7.188;2023-07-31T14:04:07;23.80;96.00
9941;DHT22;5009;50.656;7.188;2023-07-31T14:06:32;23.70;95.90
9941;DHT22;5009;50.656;7.188;2023-07-31T14:08:58;23.60;96.00
9941;DHT22;5009;50.656;7.188;2023-07-31T14:11:23;23.50;95.70
9941;DHT22;5009;50.656;7.188;2023-07-31T14:13:50;23.40;96.00
9941;DHT22;5009;50.656;7.188;2023-07-31T14:16:16;23.40;96.10
9941;DHT22;5009;50.656;7.188;2023-07-31T14:18:42;23.50;96.40
9941;DHT22;5009;50.656;7.188;2023-07-31T14:21:08;23.60;96.30
9941;DHT22;5009;50.656;7.188;2023-07-31T14:23:34;23.60;96.00
9941;DHT22;5009;50.656;7.188;2023-07-31T14:25:59;23.50;96.20
9941;DHT22;5009;50.656;7.188;2023-07-31T14:28:25;23.30;96.10
9941;DHT22;5009;50.656;7.188;2023-07-31T14:30:50;23.20;96.50
9941;DHT22;5009;50.656;7.188;2023-07-31T14:33:16;22.80;96.40
9941;DHT22;5009;50.656;7.188;2023-07-31T14:35:42;22.70;96.80
9941;DHT22;5009;50.656;7.188;2023-07-31T14:38:07;22.70;97.40
9941;DHT22;5009;50.656;7.188;2023-07-31T14:40:33;22.60;97.30
9941;DHT22;5009;50.656;7.188;2023-07-31T14:42:58;22.70;97.50
9941;DHT22;5009;50.656;7.188;2023-07-31T14:45:24;22.70;97.50
9941;DHT22;5009;50.656;7.188;2023-07-31T14:47:49;22.50;97.10
9941;DHT22;5009;50.656;7.188;2023-07-31T14:50:15;22.50;97.50
9941;DHT22;5009;50.656;7.188;2023-07-31T14:52:41;22.40;97.30
9941;DHT22;5009;50.656;7.188;2023-07-31T14:55:07;22.40;97.50
9941;DHT22;5009;50.656;7.188;2023-07-31T14:57:34;22.40;97.50
9941;DHT22;5009;50.656;7.188;2023-07-31T14:59:59;22.30;97.60
9941;DHT22;5009;50.656;7.188;2023-07-31T15:02:25;22.30;97.60
9941;DHT22;5009;50.656;7.188;2023-07-31T15:04:51;22.20;97.70
9941;DHT22;5009;50.656;7.188;2023-07-31T15:07:17;22.30;98.00
9941;DHT22;5009;50.656;7.188;2023-07-31T15:09:42;22.20;97.30
9941;DHT22;5009;50.656;7.188;2023-07-31T15:12:08;22.30;97.70
9941;DHT22;5009;50.656;7.188;2023-07-31T15:14:33;22.30;97.60
9941;DHT22;5009;50.656;7.188;2023-07-31T15:17:00;22.10;97.90
9941;DHT22;5009;50.656;7.188;2023-07-31T15:19:25;22.00;97.90
9941;DHT22;5009;50.656;7.188;2023-07-31T15:21:51;22.00;98.40
9941;DHT22;5009;50.656;7.188;2023-07-31T15:24:16;22.00;98.10
9941;DHT22;5009;50.656;7.188;2023-07-31T15:26:42;22.00;98.20
9941;DHT22;5009;50.656;7.188;2023-07-31T15:29:08;22.00;98.40
9941;DHT22;5009;50.656;7.188;2023-07-31T15:31:41;21.90;98.20
9941;DHT22;5009;50.656;7.188;2023-07-31T15:34:07;21.80;98.70
9941;DHT22;5009;50.656;7.188;2023-07-31T15:36:33;21.90;98.90
9941;DHT22;5009;50.656;7.188;2023-07-31T15:38:58;21.90;98.70
9941;DHT22;5009;50.656;7.188;2023-07-31T15:41:24;21.80;98.80
9941;DHT22;5009;50.656;7.188;2023-07-31T15:43:51;21.90;98.90
9941;DHT22;5009;50.656;7.188;2023-07-31T15:46:17;21.90;98.90
9941;DHT22;5009;50.656;7.188;2023-07-31T15:48:42;21.90;98.70
9941;DHT22;5009;50.656;7.188;2023-07-31T15:51:08;22.00;98.50
9941;DHT22;5009;50.656;7.188;2023-07-31T15:53:33;22.10;98.70
9941;DHT22;5009;50.656;7.188;2023-07-31T15:55:59;22.10;98.80
9941;DHT22;5009;50.656;7.188;2023-07-31T15:58:25;22.10;98.80
9941;DHT22;5009;50.656;7.188;2023-07-31T16:00:50;22.00;98.70
9941;DHT22;5009;50.656;7.188;2023-07-31T16:03:16;21.90;98.60
9941;DHT22;5009;50.656;7.188;2023-07-31T16:05:41;21.90;98.20
9941;DHT22;5009;50.656;7.188;2023-07-31T16:08:07;21.90;98.70
9941;DHT22;5009;50.656;7.188;2023-07-31T16:10:33;21.80;98.40
9941;DHT22;5009;50.656;7.188;2023-07-31T16:12:58;21.80;98.90
9941;DHT22;5009;50.656;7.188;2023-07-31T16:15:24;21.80;99.70
9941;DHT22;5009;50.656;7.188;2023-07-31T16:17:50;21.70;99.60
9941;DHT22;5009;50.656;7.188;2023-07-31T16:20:15;21.70;99.90
9941;DHT22;5009;50.656;7.188;2023-07-31T16:22:41;21.70;99.90
9941;DHT22;5009;50.656;7.188;2023-07-31T16:25:09;21.50;99.90
9941;DHT22;5009;50.656;7.188;2023-07-31T16:27:35;21.50;99.90
9941;DHT22;5009;50.656;7.188;2023-07-31T16:30:01;21.40;99.90
9941;DHT22;5009;50.656;7.188;2023-07-31T16:32:27;21.40;99.90
9941;DHT22;5009;50.656;7.188;2023-07-31T16:34:53;21.30;99.90
9941;DHT22;5009;50.656;7.188;2023-07-31T16:37:18;21.30;99.90
9941;DHT22;5009;50.656;7.188;2023-07-31T16:39:45;21.10;99.90
9941;DHT22;5009;50.656;7.188;2023-07-31T16:42:12;21.10;99.90
9941;DHT22;5009;50.656;7.188;2023-07-31T16:44:38;21.10;99.90
9941;DHT22;5009;50.656;7.188;2023-07-31T16:47:04;21.00;99.90
9941;DHT22;5009;50.656;7.188;2023-07-31T16:49:30;20.80;99.90
9941;DHT22;5009;50.656;7.188;2023-07-31T16:51:55;20.70;99.90
9941;DHT22;5009;50.656;7.188;2023-07-31T16:54:21;20.70;99.90
9941;DHT22;5009;50.656;7.188;2023-07-31T16:56:46;20.50;99.90
9941;DHT22;5009;50.656;7.188;2023-07-31T16:59:15;20.50;99.90
9941;DHT22;5009;50.656;7.188;2023-07-31T17:01:40;20.40;99.90
9941;DHT22;5009;50.656;7.188;2023-07-31T17:04:06;20.30;99.90
9941;DHT22;5009;50.656;7.188;2023-07-31T17:06:31;20.20;99.90
9941;DHT22;5009;50.656;7.188;2023-07-31T17:08:57;20.20;99.90
9941;DHT22;5009;50.656;7.188;2023-07-31T17:11:23;20.20;99.90
9941;DHT22;5009;50.656;7.188;2023-07-31T17:13:48;20.20;99.90
9941;DHT22;5009;50.656;7.188;2023-07-31T17:16:14;20.20;99.90
9941;DHT22;5009;50.656;7.188;2023-07-31T17:18:39;20.20;99.90
9941;DHT22;5009;50.656;7.188;2023-07-31T17:21:05;20.10;99.90
9941;DHT22;5009;50.656;7.188;2023-07-31T17:23:30;20.00;99.90
9941;DHT22;5009;50.656;7.188;2023-07-31T17:25:56;20.00;99.90
9941;DHT22;5009;50.656;7.188;2023-07-31T17:28:22;20.00;99.90
9941;DHT22;5009;50.656;7.188;2023-07-31T17:30:48;20.00;99.90
9941;DHT22;5009;50.656;7.188;2023-07-31T17:33:14;20.00;99.90
9941;DHT22;5009;50.656;7.188;2023-07-31T17:35:40;20.10;99.90
9941;DHT22;5009;50.656;7.188;2023-07-31T17:38:06;20.10;99.90
9941;DHT22;5009;50.656;7.188;2023-07-31T17:40:32;20.10;99.90
9941;DHT22;5009;50.656;7.188;2023-07-31T17:42:57;20.00;99.90
9941;DHT22;5009;50.656;7.188;2023-07-31T17:45:23;20.00;99.90
9941;DHT22;5009;50.656;7.188;2023-07-31T17:47:48;20.00;99.90
9941;DHT22;5009;50.656;7.188;2023-07-31T17:50:14;20.00;99.90
9941;DHT22;5009;50.656;7.188;2023-07-31T17:52:39;20.00;99.90
9941;DHT22;5009;50.656;7.188;2023-07-31T17:55:07;20.00;99.90
9941;DHT22;5009;50.656;7.188;2023-07-31T17:57:33;20.00;99.90
9941;DHT22;5009;50.656;7.188;2023-07-31T17:59:58;20.00;99.90
9941;DHT22;5009;50.656;7.188;2023-07-31T18:02:24;20.00;99.90
9941;DHT22;5009;50.656;7.188;2023-07-31T18:04:49;19.90;99.90
9941;DHT22;5009;50.656;7.188;2023-07-31T18:07:15;19.90;99.90
9941;DHT22;5009;50.656;7.188;2023-07-31T18:09:41;19.90;99.90
9941;DHT22;5009;50.656;7.188;2023-07-31T18:12:08;19.80;99.90
9941;DHT22;5009;50.656;7.188;2023-07-31T18:14:33;19.80;99.90
9941;DHT22;5009;50.656;7.188;2023-07-31T18:17:02;19.80;99.90
9941;DHT22;5009;50.656;7.188;2023-07-31T18:19:28;19.80;99.90
9941;DHT22;5009;50.656;7.188;2023-07-31T18:21:54;19.80;99.90
9941;DHT22;5009;50.656;7.188;2023-07-31T18:24:20;19.70;99.90
9941;DHT22;5009;50.656;7.188;2023-07-31T18:26:45;19.70;99.90
9941;DHT22;5009;50.656;7.188;2023-07-31T18:29:11;19.70;99.90
9941;DHT22;5009;50.656;7.188;2023-07-31T18:31:36;19.70;99.90
9941;DHT22;5009;50.656;7.188;2023-07-31T18:34:02;19.80;99.90
9941;DHT22;5009;50.656;7.188;2023-07-31T18:36:28;19.70;99.90
9941;DHT22;5009;50.656;7.188;2023-07-31T18:38:53;19.70;99.90
9941;DHT22;5009;50.656;7.188;2023-07-31T18:41:19;19.70;99.90
9941;DHT22;5009;50.656;7.188;2023-07-31T18:43:44;19.70;99.90
9941;DHT22;5009;50.656;7.188;2023-07-31T18:46:11;19.60;99.90
9941;DHT22;5009;50.656;7.188;2023-07-31T18:48:37;19.50;99.90
9941;DHT22;5009;50.656;7.188;2023-07-31T18:51:03;19.50;99.90
9941;DHT22;5009;50.656;7.188;2023-07-31T18:53:29;19.40;99.90
9941;DHT22;5009;50.656;7.188;2023-07-31T18:55:55;19.40;99.90
9941;DHT22;5009;50.656;7.188;2023-07-31T18:58:20;19.30;99.90
9941;DHT22;5009;50.656;7.188;2023-07-31T19:00:46;19.30;99.90
9941;DHT22;5009;50.656;7.188;2023-07-31T19:03:12;19.30;99.90
9941;DHT22;5009;50.656;7.188;2023-07-31T19:05:41;19.40;99.90
9941;DHT22;5009;50.656;7.188;2023-07-31T19:08:07;19.30;99.90
9941;DHT22;5009;50.656;7.188;2023-07-31T19:10:35;19.30;99.90
9941;DHT22;5009;50.656;7.188;2023-07-31T19:13:01;19.30;99.90
9941;DHT22;5009;50.656;7.188;2023-07-31T19:15:27;19.20;99.90
9941;DHT22;5009;50.656;7.188;2023-07-31T19:17:53;19.20;99.90
9941;DHT22;5009;50.656;7.188;2023-07-31T19:20:18;19.20;99.90
9941;DHT22;5009;50.656;7.188;2023-07-31T19:22:44;19.20;99.90
9941;DHT22;5009;50.656;7.188;2023-07-31T19:25:09;19.10;99.90
9941;DHT22;5009;50.656;7.188;2023-07-31T19:27:35;19.10;99.90
9941;DHT22;5009;50.656;7.188;2023-07-31T19:30:00;19.10;99.90
9941;DHT22;5009;50.656;7.188;2023-07-31T19:32:27;19.10;99.90
9941;DHT22;5009;50.656;7.188;2023-07-31T19:34:53;19.10;99.90
9941;DHT22;5009;50.656;7.188;2023-07-31T19:37:19;19.00;99.90
9941;DHT22;5009;50.656;7.188;2023-07-31T19:39:44;19.00;99.90
9941;DHT22;5009;50.656;7.188;2023-07-31T19:42:10;19.00;99.90
9941;DHT22;5009;50.656;7.188;2023-07-31T19:44:35;19.00;99.90
9941;DHT22;5009;50.656;7.188;2023-07-31T19:47:01;19.00;99.90
9941;DHT22;5009;50.656;7.188;2023-07-31T19:49:27;19.00;99.90
9941;DHT22;5009;50.656;7.188;2023-07-31T19:51:53;19.00;99.90
9941;DHT22;5009;50.656;7.188;2023-07-31T19:54:18;19.00;99.90
9941;DHT22;5009;50.656;7.188;2023-07-31T19:56:44;18.90;99.90
9941;DHT22;5009;50.656;7.188;2023-07-31T19:59:10;18.80;99.90
9941;DHT22;5009;50.656;7.188;2023-07-31T20:01:36;18.80;99.90
9941;DHT22;5009;50.656;7.188;2023-07-31T20:04:01;18.80;99.90
9941;DHT22;5009;50.656;7.188;2023-07-31T20:06:27;18.60;99.90